Time;durP1;ratioP1;P1;durP2;ratioP2;P2;SDS_P1;SDS_P2;PMS_P1;PMS_P2;Temp;Humidity;BMP_temperature;BMP_pressure;BME280_temperature;BME280_humidity;BME280_pressure;Samples;Min_cycle;Max_cycle;Signal;HPM_P1;HPM_P2
2022/01/04 00:02:16;;;;;;;161.73;144.40;;;;;;;16.97;37.57;93007.13;5022140;28;20519;-67
2022/01/04 00:04:42;;;;;;;160.32;143.15;;;;;;;16.95;37.41;92999.50;5027797;28;20045;-67
2022/01/04 00:07:08;;;;;;;160.02;142.77;;;;;;;16.97;37.58;92994.38;5027951;28;20522;-66
2022/01/04 00:09:40;;;;;;;159.77;142.90;;;;;;;16.96;37.67;92989.44;5025992;28;20045;-67
2022/01/04 00:14:55;;;;;;;156.98;139.88;;;;;;;16.97;37.54;92991.66;5028466;28;20116;-67
2022/01/04 00:17:21;;;;;;;162.45;144.88;;;;;;;16.96;37.54;92992.88;5024533;28;20132;-66
2022/01/04 00:19:46;;;;;;;163.13;145.48;;;;;;;16.97;37.46;92983.56;5026188;28;20185;-67
2022/01/04 00:22:12;;;;;;;159.45;142.07;;;;;;;16.97;37.63;92972.75;5028737;28;20103;-66
2022/01/04 00:24:38;;;;;;;163.23;145.40;;;;;;;16.96;37.54;92973.22;5016529;28;20064;-66
2022/01/04 00:27:04;;;;;;;163.18;145.63;;;;;;;16.97;37.67;92969.31;5024101;28;20053;-66
2022/01/04 00:29:29;;;;;;;155.68;139.05;;;;;;;16.95;37.47;92961.69;5027660;28;20489;-66
2022/01/04 00:31:55;;;;;;;157.10;140.18;;;;;;;16.93;37.43;92958.72;5028915;28;20128;-66
2022/01/04 00:34:21;;;;;;;160.15;142.82;;;;;;;16.95;37.49;92947.44;5024228;28;20132;-66
2022/01/04 00:36:46;;;;;;;159.30;142.20;;;;;;;16.96;37.48;92940.81;5023277;28;20580;-66
2022/01/04 00:39:12;;;;;;;162.93;145.23;;;;;;;16.95;37.50;92939.34;5025300;28;20501;-66
2022/01/04 00:41:38;;;;;;;166.57;148.60;;;;;;;16.94;37.53;92940.56;5017693;28;20134;-66
2022/01/04 00:44:04;;;;;;;158.23;141.18;;;;;;;16.95;37.54;92940.09;5020915;28;20510;-66
2022/01/04 00:46:30;;;;;;;164.30;146.50;;;;;;;16.95;37.63;92928.53;5018961;28;20144;-66
2022/01/04 00:49:11;;;;;;;161.45;144.07;;;;;;;16.95;37.32;92933.94;5024879;28;20116;-67
2022/01/04 00:51:42;;;;;;;159.68;142.32;;;;;;;16.94;37.61;92916.25;5023490;28;20099;-66
2022/01/04 00:54:09;;;;;;;161.27;143.90;;;;;;;16.94;37.61;92908.16;5027358;28;20437;-66
2022/01/04 00:56:35;;;;;;;160.23;142.73;;;;;;;16.93;37.56;92910.09;5025166;28;20228;-66
2022/01/04 00:59:02;;;;;;;164.18;146.30;;;;;;;16.94;37.56;92917.00;5021284;28;20115;-66
2022/01/04 01:01:28;;;;;;;159.60;142.27;;;;;;;16.93;37.69;92903.97;5020920;28;20053;-66
2022/01/04 01:03:54;;;;;;;159.65;142.45;;;;;;;16.93;37.57;92898.56;5028615;28;20061;-67
2022/01/04 01:06:21;;;;;;;159.13;141.85;;;;;;;16.92;37.69;92908.63;5027307;28;20046;-66
2022/01/04 01:08:46;;;;;;;164.73;146.73;;;;;;;16.92;37.54;92894.38;5017547;28;20049;-66
2022/01/04 01:11:12;;;;;;;166.98;148.98;;;;;;;16.93;37.49;92907.41;5012829;28;20069;-67
2022/01/04 01:13:38;;;;;;;160.02;142.68;;;;;;;16.91;37.72;92893.63;5017543;28;20042;-66
2022/01/04 01:16:05;;;;;;;159.85;142.60;;;;;;;16.92;37.37;92895.13;5021429;28;20537;-67
2022/01/04 01:18:30;;;;;;;163.07;145.27;;;;;;;16.92;37.62;92894.38;5024121;28;20050;-66
2022/01/04 01:20:57;;;;;;;164.27;146.43;;;;;;;16.92;37.57;92888.97;5026057;28;20498;-66
2022/01/04 01:23:23;;;;;;;162.05;144.50;;;;;;;16.91;37.63;92890.19;5022512;28;20053;-66
2022/01/04 01:25:50;;;;;;;159.50;142.23;;;;;;;16.91;37.41;92887.50;5019161;28;20549;-66
2022/01/04 01:28:16;;;;;;;164.93;147.05;;;;;;;16.90;37.54;92889.44;5024650;28;20064;-66
2022/01/04 01:30:43;;;;;;;159.73;142.48;;;;;;;16.90;37.44;92883.31;5022393;28;20041;-67
2022/01/04 01:33:10;;;;;;;160.82;143.43;;;;;;;16.89;37.45;92885.28;5021246;28;20123;-65
2022/01/04 01:35:37;;;;;;;158.25;141.10;;;;;;;16.89;37.27;92877.19;5021407;28;20141;-66
2022/01/04 01:38:03;;;;;;;158.50;141.23;;;;;;;16.90;37.53;92878.66;5028286;28;20444;-66
2022/01/04 01:40:30;;;;;;;158.90;141.68;;;;;;;16.90;37.30;92875.22;5025743;28;20439;-66
2022/01/04 01:42:57;;;;;;;158.52;141.27;;;;;;;16.88;37.61;92870.31;5026984;28;20362;-66
2022/01/04 01:45:23;;;;;;;161.57;144.05;;;;;;;16.88;37.66;92870.31;5025116;28;20053;-66
2022/01/04 01:47:49;;;;;;;161.75;144.05;;;;;;;16.88;37.44;92867.59;5025581;28;20060;-66
2022/01/04 01:50:16;;;;;;;162.50;144.75;;;;;;;16.88;37.44;92859.50;5022476;28;20053;-66
2022/01/04 01:52:43;;;;;;;160.32;142.82;;;;;;;16.88;37.51;92853.34;5013560;28;20056;-66
2022/01/04 01:55:10;;;;;;;162.07;144.40;;;;;;;16.88;37.58;92834.47;5016244;28;20040;-66
2022/01/04 01:57:36;;;;;;;162.38;144.77;;;;;;;16.87;37.66;92839.13;5027955;28;20104;-66
2022/01/04 02:00:04;;;;;;;160.63;143.13;;;;;;;16.88;37.43;92818.25;5020636;28;20033;-66
2022/01/04 02:02:30;;;;;;;160.05;142.60;;;;;;;16.86;37.78;92820.69;5023243;28;20063;-66
2022/01/04 02:04:55;;;;;;;161.07;143.52;;;;;;;16.86;37.74;92824.13;5022888;28;20057;-66
2022/01/04 02:07:23;;;;;;;160.60;143.23;;;;;;;16.87;37.61;92816.78;5023621;28;20133;-66
2022/01/04 02:10:00;;;;;;;163.13;145.45;;;;;;;16.88;37.65;92815.56;5017664;28;20180;-67
2022/01/04 02:12:27;;;;;;;157.63;140.35;;;;;;;16.87;37.65;92798.59;5024109;28;20153;-67
2022/01/04 02:14:52;;;;;;;161.18;143.60;;;;;;;16.87;37.68;92795.91;5026502;28;20802;-66
2022/01/04 02:17:18;;;;;;;160.82;143.40;;;;;;;16.87;37.69;92784.38;5022850;28;20046;-66
2022/01/04 02:19:44;;;;;;;158.88;141.60;;;;;;;16.87;37.71;92773.56;5025148;28;20080;-67
2022/01/04 02:22:09;;;;;;;159.15;141.90;;;;;;;16.87;37.61;92773.56;5022451;28;20042;-66
2022/01/04 02:24:34;;;;;;;156.52;139.40;;;;;;;16.86;37.59;92764.72;5022808;28;20116;-66
2022/01/04 02:27:00;;;;;;;159.20;142.00;;;;;;;16.87;37.71;92765.47;5025597;28;20069;-66
2022/01/04 02:29:27;;;;;;;158.80;141.60;;;;;;;16.86;37.60;92758.59;5021016;28;20084;-66
2022/01/04 02:31:53;;;;;;;159.95;142.70;;;;;;;16.86;37.73;92751.22;5024623;28;20518;-66
2022/01/04 02:34:19;;;;;;;156.20;139.10;;;;;;;16.85;37.60;92747.03;5024253;28;20052;-67
2022/01/04 02:36:45;;;;;;;159.32;142.02;;;;;;;16.86;37.71;92743.13;5026620;28;20049;-66
2022/01/04 02:39:10;;;;;;;160.18;142.82;;;;;;;16.87;37.46;92743.88;5020756;28;20053;-66
2022/01/04 02:41:36;;;;;;;160.20;142.85;;;;;;;16.87;37.63;92735.75;5023932;28;20410;-66
2022/01/04 02:44:02;;;;;;;162.45;144.77;;;;;;;16.86;37.55;92737.72;5023324;28;20045;-66
2022/01/04 02:46:28;;;;;;;160.90;143.60;;;;;;;16.86;37.67;92735.03;5026515;28;20059;-66
2022/01/04 02:48:53;;;;;;;166.60;148.48;;;;;;;16.85;37.55;92730.84;5019657;28;20058;-66
2022/01/04 02:51:19;;;;;;;159.95;142.65;;;;;;;16.86;37.81;92718.81;5023992;28;20045;-66
2022/01/04 02:53:45;;;;;;;156.93;139.93;;;;;;;16.86;37.78;92712.69;5027581;28;20053;-66
2022/01/04 02:56:11;;;;;;;156.73;139.75;;;;;;;16.85;37.59;92701.13;5028763;28;20456;-66
2022/01/04 02:58:37;;;;;;;158.95;141.80;;;;;;;16.85;37.72;92692.28;5026186;28;20056;-66
2022/01/04 03:01:04;;;;;;;159.18;141.85;;;;;;;16.85;37.65;92681.50;5028875;28;20456;-66
2022/01/04 03:03:31;;;;;;;160.23;143.02;;;;;;;16.84;37.48;92671.91;5029909;28;20053;-66
2022/01/04 03:05:57;;;;;;;162.38;144.85;;;;;;;16.84;37.56;92661.13;5028304;28;20079;-66
2022/01/04 03:08:23;;;;;;;162.02;144.32;;;;;;;16.84;37.73;92659.16;5025237;28;20132;-66
2022/01/04 03:10:49;;;;;;;158.15;141.10;;;;;;;16.85;37.72;92655.22;5025968;28;20042;-66
2022/01/04 03:13:16;;;;;;;161.20;143.48;;;;;;;16.83;37.90;92640.72;5026438;28;20049;-66
2022/01/04 03:15:43;;;;;;;156.45;139.50;;;;;;;16.83;37.86;92638.78;5027664;28;20136;-66
2022/01/04 03:18:09;;;;;;;159.35;142.05;;;;;;;16.83;37.76;92629.94;5029281;28;20049;-66
2022/01/04 03:20:34;;;;;;;159.68;142.35;;;;;;;16.83;37.78;92635.34;5015822;28;20508;-67
2022/01/04 03:23:00;;;;;;;156.60;139.65;;;;;;;16.83;37.64;92633.38;5030299;28;20616;-66
2022/01/04 03:25:26;;;;;;;157.80;140.77;;;;;;;16.83;37.83;92638.03;5018952;28;20071;-67
2022/01/04 03:27:52;;;;;;;160.82;143.48;;;;;;;16.81;37.75;92627.72;5028433;28;20046;-67
2022/01/04 03:30:17;;;;;;;154.55;137.60;;;;;;;16.82;37.65;92634.59;5023623;28;20034;-67
2022/01/04 03:32:43;;;;;;;159.38;142.18;;;;;;;16.81;37.54;92630.41;5025112;28;20596;-66
2022/01/04 03:35:09;;;;;;;158.80;141.70;;;;;;;16.81;37.68;92632.38;5025958;28;20042;-66
2022/01/04 03:37:35;;;;;;;159.10;141.90;;;;;;;16.81;37.54;92624.28;5028886;28;20061;-66
2022/01/04 03:40:01;;;;;;;158.32;140.93;;;;;;;16.78;37.66;92623.25;5027519;28;20172;-65
2022/01/04 03:42:26;;;;;;;156.45;139.60;;;;;;;16.80;37.49;92599.22;5026599;28;20124;-66
2022/01/04 03:44:52;;;;;;;162.82;145.10;;;;;;;16.79;37.58;92590.38;5027037;28;20057;-66
2022/01/04 03:47:17;;;;;;;156.05;139.02;;;;;;;16.79;37.55;92576.16;5025293;28;20497;-66
2022/01/04 03:49:43;;;;;;;156.30;139.38;;;;;;;16.79;37.49;92565.34;5028761;28;20588;-66
2022/01/04 03:52:08;;;;;;;158.35;141.15;;;;;;;16.79;37.65;92587.69;5026381;28;20144;-65
2022/01/04 03:54:34;;;;;;;156.30;139.35;;;;;;;16.78;37.65;92580.81;5025328;28;20053;-66
2022/01/04 03:57:00;;;;;;;161.32;143.68;;;;;;;16.78;37.58;92563.88;5027459;28;20533;-66
2022/01/04 03:59:25;;;;;;;155.73;138.88;;;;;;;16.78;37.73;92569.28;5027523;28;20041;-66
2022/01/04 04:01:51;;;;;;;161.32;143.88;;;;;;;16.78;37.64;92528.78;5023301;28;20443;-66
2022/01/04 04:04:17;;;;;;;156.43;139.43;;;;;;;16.78;37.63;92542.28;5027574;28;20465;-66
2022/01/04 04:06:42;;;;;;;155.15;138.25;;;;;;;16.78;37.76;92512.56;5024835;28;20498;-66
2022/01/04 04:09:08;;;;;;;159.85;142.43;;;;;;;16.77;37.64;92544.22;5026450;28;20148;-66
2022/01/04 04:11:34;;;;;;;158.57;141.40;;;;;;;16.77;37.90;92511.09;5026689;28;20128;-66
2022/01/04 04:13:59;;;;;;;157.13;139.95;;;;;;;16.78;37.71;92488.28;5024334;28;20053;-66
2022/01/04 04:16:25;;;;;;;157.85;140.80;;;;;;;16.77;37.53;92517.25;5025140;28;20042;-66
2022/01/04 04:18:50;;;;;;;156.57;139.48;;;;;;;16.78;37.63;92502.53;5027389;28;20120;-66
2022/01/04 04:21:16;;;;;;;158.57;141.38;;;;;;;16.77;37.58;92495.63;5027888;28;20038;-66
2022/01/04 04:23:42;;;;;;;156.90;139.88;;;;;;;16.78;37.64;92485.59;5022235;28;20049;-65
2022/01/04 04:26:07;;;;;;;154.90;138.02;;;;;;;16.78;37.52;92504.47;5028090;28;20057;-66
2022/01/04 04:28:33;;;;;;;161.90;144.18;;;;;;;16.78;37.97;92526.81;5023506;28;20132;-66
2022/01/04 04:31:01;;;;;;;155.68;138.80;;;;;;;16.76;37.51;92488.03;5029510;28;20045;-66
2022/01/04 04:33:27;;;;;;;158.60;141.40;;;;;;;16.77;37.50;92528.03;5025816;28;20092;-66
2022/01/04 04:35:52;;;;;;;157.30;140.23;;;;;;;16.75;37.54;92486.53;5024384;28;20490;-66
2022/01/04 04:38:18;;;;;;;165.23;147.13;;;;;;;16.75;37.42;92486.53;5022547;28;20176;-66
2022/01/04 04:40:44;;;;;;;157.25;140.23;;;;;;;16.74;37.37;92458.81;5021937;28;20064;-66
2022/01/04 04:43:10;;;;;;;157.38;140.30;;;;;;;16.77;37.51;92478.69;5026975;28;20661;-66
2022/01/04 04:45:36;;;;;;;155.73;138.88;;;;;;;16.76;37.43;92461.78;5025784;28;20049;-67
2022/01/04 04:48:01;;;;;;;157.55;140.50;;;;;;;16.76;37.53;92445.56;5027546;28;20116;-67
2022/01/04 04:50:26;;;;;;;156.95;140.00;;;;;;;16.75;37.53;92438.69;5028146;28;20100;-66
2022/01/04 04:52:52;;;;;;;157.07;140.10;;;;;;;16.77;37.60;92443.59;5026346;28;20045;-66
2022/01/04 04:55:18;;;;;;;162.02;144.45;;;;;;;16.75;37.55;92430.59;5021002;28;20067;-66
2022/01/04 04:57:43;;;;;;;155.60;138.77;;;;;;;16.76;37.46;92429.38;5026486;28;20049;-66
2022/01/04 05:00:10;;;;;;;157.85;140.65;;;;;;;16.76;37.57;92418.56;5026594;28;20077;-66
2022/01/04 05:02:37;;;;;;;156.80;139.82;;;;;;;16.76;37.46;92426.66;5021675;28;20057;-66
2022/01/04 05:05:04;;;;;;;157.65;140.57;;;;;;;16.75;37.46;92419.78;5025154;28;20061;-66
2022/01/04 05:07:29;;;;;;;160.63;143.23;;;;;;;16.78;37.59;92420.78;5021664;28;20456;-66
2022/01/04 05:09:55;;;;;;;156.52;139.63;;;;;;;16.78;37.43;92429.63;5016442;28;20176;-66
2022/01/04 05:12:21;;;;;;;157.63;140.57;;;;;;;16.79;37.55;92411.47;5024574;28;20041;-66
2022/01/04 05:14:46;;;;;;;159.05;141.88;;;;;;;16.79;37.38;92420.31;5026515;28;20045;-66
2022/01/04 05:17:13;;;;;;;159.05;141.88;;;;;;;16.81;37.38;92419.81;5023032;28;20080;-66
2022/01/04 05:19:39;;;;;;;157.85;140.85;;;;;;;16.81;37.46;92419.81;5025050;28;20061;-66
2022/01/04 05:22:05;;;;;;;157.25;140.27;;;;;;;16.82;37.63;92410.50;5038423;28;20071;-66
2022/01/04 05:24:31;;;;;;;162.52;144.80;;;;;;;16.81;37.33;92411.00;5026461;28;20044;-66
2022/01/04 05:26:56;;;;;;;162.27;144.57;;;;;;;16.82;37.35;92402.41;5016952;28;20121;-66
2022/01/04 05:29:22;;;;;;;157.45;140.40;;;;;;;16.81;37.23;92402.88;5022178;28;20096;-66
2022/01/04 05:31:48;;;;;;;160.30;142.88;;;;;;;16.82;37.22;92402.41;5025717;28;20045;-66
2022/01/04 05:34:14;;;;;;;158.63;141.35;;;;;;;16.82;37.21;92407.81;5023529;28;20469;-66
2022/01/04 05:36:39;;;;;;;157.82;140.77;;;;;;;16.84;37.28;92399.97;5026899;28;20046;-66
2022/01/04 05:39:05;;;;;;;157.73;140.60;;;;;;;16.83;37.36;92401.19;5026279;28;20124;-66
2022/01/04 05:41:30;;;;;;;158.20;141.10;;;;;;;16.85;37.21;92389.91;5028183;28;20108;-67
2022/01/04 05:43:56;;;;;;;157.50;140.43;;;;;;;16.86;37.17;92391.38;5025407;28;20072;-66
2022/01/04 05:46:22;;;;;;;155.43;138.50;;;;;;;16.85;37.14;92385.25;5020396;28;20198;-66
2022/01/04 05:48:47;;;;;;;160.63;143.02;;;;;;;16.84;37.17;92372.97;5013320;28;20128;-65
2022/01/04 05:51:13;;;;;;;162.80;145.05;;;;;;;16.86;37.35;92378.63;5023398;28;20038;-66
2022/01/04 05:53:38;;;;;;;167.50;149.27;;;;;;;16.87;37.35;92385.50;5016836;28;20136;-66
2022/01/04 05:56:04;;;;;;;157.57;140.48;;;;;;;16.88;37.43;92375.44;5020720;28;20886;-66
2022/01/04 05:58:31;;;;;;;168.30;149.85;;;;;;;16.88;37.20;92356.53;5015263;28;20779;-66
2022/01/04 06:00:57;;;;;;;158.85;141.57;;;;;;;16.89;37.29;92374.22;5018569;28;20512;-66
2022/01/04 06:03:23;;;;;;;159.27;141.85;;;;;;;16.90;37.40;92370.28;5018103;28;20049;-66
2022/01/04 06:05:49;;;;;;;157.82;140.68;;;;;;;16.89;37.25;92350.66;5021576;28;20072;-66
2022/01/04 06:08:15;;;;;;;161.73;144.18;;;;;;;16.89;37.37;92352.59;5026396;28;20420;-66
2022/01/04 06:10:43;;;;;;;162.65;144.93;;;;;;;16.91;37.26;92344.72;5020545;28;20046;-65
2022/01/04 06:15:38;;;;;;;163.15;145.32;;;;;;;16.92;37.36;92357.00;5018550;28;20058;-66
2022/01/04 06:18:04;;;;;;;158.10;141.00;;;;;;;16.92;37.18;92343.50;5026878;28;20389;-66
2022/01/04 06:20:30;;;;;;;158.00;140.85;;;;;;;16.91;37.63;92353.56;5021161;28;20107;-66
2022/01/04 06:22:56;;;;;;;159.25;141.93;;;;;;;16.92;37.44;92343.50;5029296;28;20456;-66
2022/01/04 06:25:22;;;;;;;158.23;140.98;;;;;;;16.92;37.20;92346.22;5029015;28;20163;-66
2022/01/04 06:27:51;;;;;;;157.50;140.38;;;;;;;16.93;37.44;92348.41;5022066;28;20045;-66
2022/01/04 06:30:18;;;;;;;161.23;143.65;;;;;;;16.93;37.35;92353.09;5023307;28;20045;-67
2022/01/04 06:32:45;;;;;;;158.75;141.55;;;;;;;16.93;37.52;92345.72;5030142;28;20056;-66
2022/01/04 06:35:13;;;;;;;163.48;145.77;;;;;;;16.93;37.18;92353.81;5027959;28;20128;-66
2022/01/04 06:37:44;;;;;;;159.80;142.52;;;;;;;16.94;37.46;92349.16;5022604;28;20069;-66
2022/01/04 06:40:11;;;;;;;162.40;144.80;;;;;;;16.94;37.29;92343.75;5026157;28;20164;-66
2022/01/04 06:42:37;;;;;;;159.43;142.13;;;;;;;16.94;37.26;92343.75;5026498;28;20042;-66
2022/01/04 06:45:03;;;;;;;157.60;140.48;;;;;;;16.94;37.28;92352.59;5025042;28;20059;-63
2022/01/04 06:47:29;;;;;;;161.23;143.75;;;;;;;16.94;37.23;92341.06;5029061;28;20092;-65
2022/01/04 06:49:54;;;;;;;158.25;141.20;;;;;;;16.95;37.29;92342.53;5030275;28;20045;-65
2022/01/04 06:52:20;;;;;;;159.98;142.60;;;;;;;16.95;37.42;92339.84;5030054;28;20119;-66
2022/01/04 06:54:46;;;;;;;155.73;138.77;;;;;;;16.94;37.22;92341.78;5024503;28;20041;-66
2022/01/04 06:57:11;;;;;;;159.52;142.25;;;;;;;16.95;37.34;92334.44;5029168;28;20042;-66
2022/01/04 06:59:37;;;;;;;164.90;147.00;;;;;;;16.97;37.16;92353.59;5030247;28;20072;-66
2022/01/04 07:02:03;;;;;;;156.98;139.93;;;;;;;16.96;37.21;92360.94;5028514;28;20033;-65
2022/01/04 07:04:29;;;;;;;159.43;142.13;;;;;;;16.96;37.23;92357.50;5029284;28;20520;-67
2022/01/04 07:06:54;;;;;;;158.35;141.15;;;;;;;16.95;37.35;92370.28;5031006;28;20109;-66
2022/01/04 07:09:20;;;;;;;158.73;141.60;;;;;;;16.96;37.45;92381.81;5030351;28;20053;-67
2022/01/04 07:11:46;;;;;;;159.07;141.85;;;;;;;16.97;37.34;92386.72;5027568;28;20120;-67
2022/01/04 07:14:11;;;;;;;157.77;140.63;;;;;;;16.96;37.32;92390.66;5027653;28;20083;-67
2022/01/04 07:16:37;;;;;;;158.25;141.10;;;;;;;16.96;37.42;92379.84;5028162;28;20045;-69
2022/01/04 07:19:03;;;;;;;157.98;140.82;;;;;;;16.97;37.23;92386.00;5029862;28;20362;-67
2022/01/04 07:21:28;;;;;;;156.88;139.95;;;;;;;16.95;37.42;92391.88;5029065;28;20116;-67
2022/01/04 07:23:56;;;;;;;161.90;144.45;;;;;;;16.97;37.36;92383.28;5025692;28;20501;-67
2022/01/04 07:26:23;;;;;;;158.90;141.70;;;;;;;16.96;37.53;92379.13;5029328;28;20037;-68
2022/01/04 07:28:50;;;;;;;160.77;143.40;;;;;;;16.96;37.14;92382.56;5026926;28;20042;-67
2022/01/04 07:31:16;;;;;;;159.10;141.82;;;;;;;16.96;37.37;92381.81;5028016;28;20070;-66
2022/01/04 07:33:42;;;;;;;161.18;143.77;;;;;;;16.96;37.42;92381.81;5029696;28;20073;-67
2022/01/04 07:36:08;;;;;;;161.05;143.63;;;;;;;16.96;37.44;92389.91;5030873;28;20057;-67
2022/01/04 07:38:35;;;;;;;163.77;145.98;;;;;;;16.95;37.38;92386.47;5026435;28;20072;-67
2022/01/04 07:41:01;;;;;;;157.30;140.32;;;;;;;16.95;37.57;92385.75;5026287;28;20056;-67
2022/01/04 07:43:26;;;;;;;158.98;141.77;;;;;;;16.95;37.35;92378.38;5026322;28;20049;-67
2022/01/04 07:45:52;;;;;;;160.88;143.48;;;;;;;16.95;37.43;92367.56;5027248;28;20116;-67
2022/01/04 07:48:19;;;;;;;182.68;162.68;;;;;;;16.95;37.36;92370.28;5011015;28;20052;-66
2022/01/04 07:50:46;;;;;;;176.00;156.73;;;;;;;16.96;37.53;92365.63;5002641;28;20064;-65
2022/01/04 07:53:12;;;;;;;167.05;148.93;;;;;;;16.95;37.24;92348.66;5021079;28;21020;-66
2022/01/04 07:55:38;;;;;;;171.73;152.90;;;;;;;16.95;37.56;92335.16;5003774;28;20486;-65
2022/01/04 07:58:04;;;;;;;168.43;150.10;;;;;;;16.96;37.36;92352.09;5004970;28;20046;-65
2022/01/04 08:00:30;;;;;;;177.20;157.82;;;;;;;16.95;37.31;92331.72;5002628;28;20057;-66
2022/01/04 08:02:56;;;;;;;174.27;155.27;;;;;;;16.95;37.35;92345.97;5002927;28;20046;-64
2022/01/04 08:05:23;;;;;;;167.55;149.40;;;;;;;16.96;37.48;92331.25;5005635;28;20057;-65
2022/01/04 08:07:50;;;;;;;174.35;155.50;;;;;;;16.95;37.52;92331.72;5006007;28;20042;-65
2022/01/04 08:10:16;;;;;;;174.32;155.10;;;;;;;16.96;37.43;92317.00;5003300;28;20068;-65
2022/01/04 08:12:42;;;;;;;175.50;156.40;;;;;;;16.95;37.31;92308.16;5006013;28;20144;-65
2022/01/04 08:15:09;;;;;;;173.35;154.50;;;;;;;16.95;37.32;92313.56;5004343;28;20645;-65
2022/01/04 08:17:37;;;;;;;176.45;157.18;;;;;;;16.95;37.28;92300.06;5006133;28;20508;-65
2022/01/04 08:20:04;;;;;;;175.20;156.02;;;;;;;16.95;37.36;92275.75;5002718;28;20049;-65
2022/01/04 08:22:34;;;;;;;170.73;151.93;;;;;;;16.95;37.52;92275.75;5001791;28;20050;-65
2022/01/04 08:25:06;;;;;;;163.20;145.48;;;;;;;16.96;37.53;92273.81;5003210;28;20057;-66
2022/01/04 08:27:32;;;;;;;167.15;149.07;;;;;;;16.94;37.48;92271.59;5004587;28;20107;-66
2022/01/04 08:29:58;;;;;;;174.18;155.23;;;;;;;16.93;37.26;92267.41;5002249;28;20561;-68
2022/01/04 08:32:24;;;;;;;162.38;144.60;;;;;;;16.96;37.37;92268.41;5006046;28;20045;-65
2022/01/04 08:34:50;;;;;;;177.63;158.40;;;;;;;16.96;37.28;92257.59;5005441;28;20045;-66
2022/01/04 08:37:17;;;;;;;174.82;155.73;;;;;;;16.96;37.36;92255.63;5003603;28;20061;-67
2022/01/04 08:39:44;;;;;;;173.70;154.65;;;;;;;16.96;37.37;92242.13;5003573;28;20046;-66
2022/01/04 08:42:09;;;;;;;176.63;157.52;;;;;;;16.94;37.46;92228.38;5002278;28;20133;-67
2022/01/04 08:44:39;;;;;;;171.27;152.57;;;;;;;16.96;37.28;92233.28;5004353;28;20562;-66
2022/01/04 08:47:07;;;;;;;173.98;154.88;;;;;;;16.95;37.54;92237.22;5004315;28;20233;-66
2022/01/04 08:49:34;;;;;;;172.73;153.75;;;;;;;16.93;37.46;92215.38;5003365;28;20046;-66
2022/01/04 08:52:00;;;;;;;173.48;154.55;;;;;;;16.95;37.26;92213.66;5003587;28;20128;-65
2022/01/04 08:54:26;;;;;;;176.73;157.38;;;;;;;16.95;37.30;92208.25;5002320;28;20053;-67
2022/01/04 08:56:54;;;;;;;175.75;156.18;;;;;;;16.97;37.40;92207.78;5003410;28;20128;-64
2022/01/04 08:59:20;;;;;;;175.82;156.57;;;;;;;16.94;37.29;92206.78;5004176;28;20068;-64
2022/01/04 09:01:46;;;;;;;173.77;154.82;;;;;;;16.96;37.40;92209.72;5003695;28;20052;-65
2022/01/04 09:04:12;;;;;;;176.65;157.45;;;;;;;16.96;37.45;92204.34;5008740;28;20053;-66
2022/01/04 09:06:38;;;;;;;174.38;155.38;;;;;;;16.96;37.47;92190.81;5002778;28;20053;-65
2022/01/04 09:09:05;;;;;;;176.77;157.43;;;;;;;16.96;37.42;92196.22;5004747;28;20414;-64
2022/01/04 09:11:31;;;;;;;173.15;154.10;;;;;;;16.97;37.29;92186.16;5010595;28;20183;-65
2022/01/04 09:14:21;;;;;;;176.45;157.25;;;;;;;16.96;37.35;92187.41;5002728;28;20041;-65
2022/01/04 09:19:32;;;;;;;173.05;153.77;;;;;;;16.97;37.63;92186.91;5000190;28;20038;-65
2022/01/04 09:21:58;;;;;;;173.15;154.23;;;;;;;16.97;37.61;92186.16;5005334;28;20121;-65
2022/01/04 09:24:24;;;;;;;175.10;155.98;;;;;;;16.97;37.55;92186.16;5005573;28;20529;-66
2022/01/04 09:26:49;;;;;;;168.38;149.73;;;;;;;16.97;37.42;92184.19;5001027;28;20083;-65
2022/01/04 09:29:18;;;;;;;174.95;155.68;;;;;;;16.95;37.41;92177.81;5001558;28;20084;-65
2022/01/04 09:31:47;;;;;;;174.50;155.48;;;;;;;16.96;37.54;92180.03;5002665;28;20148;-66
2022/01/04 09:34:13;;;;;;;170.48;151.75;;;;;;;16.96;37.69;92169.22;5005826;28;20054;-66
2022/01/04 09:36:39;;;;;;;173.45;154.43;;;;;;;16.95;37.68;92169.72;5003739;28;20121;-65
2022/01/04 09:39:15;;;;;;;169.13;150.25;;;;;;;16.98;37.43;92163.34;5004400;28;20049;-65
2022/01/04 09:41:42;;;;;;;161.00;143.40;;;;;;;16.98;37.41;92157.94;5018890;28;20051;-65
2022/01/04 09:44:09;;;;;;;159.52;142.18;;;;;;;16.97;37.51;92159.16;5010119;28;20049;-65
2022/01/04 09:46:34;;;;;;;161.82;144.23;;;;;;;16.99;37.36;92143.22;5020815;28;20558;-66
2022/01/04 09:49:00;;;;;;;163.00;145.20;;;;;;;16.99;37.47;92149.34;5024709;28;20049;-68
2022/01/04 09:51:27;;;;;;;161.75;144.25;;;;;;;16.97;37.37;92138.28;5019186;28;20423;-65
2022/01/04 09:53:53;;;;;;;160.82;143.27;;;;;;;17.00;37.56;92148.13;5026484;28;20045;-65
2022/01/04 09:56:19;;;;;;;158.98;141.70;;;;;;;16.99;37.19;92129.72;5020052;28;20106;-68
2022/01/04 09:58:45;;;;;;;159.05;141.82;;;;;;;16.76;38.00;92123.59;5021514;28;20487;-66
2022/01/04 10:01:40;;;;;;;161.85;144.35;;;;;;;16.89;37.77;92120.41;5016934;28;20075;-66
2022/01/04 10:04:07;;;;;;;158.95;141.52;;;;;;;16.95;37.91;92119.16;5018280;28;20153;-66
2022/01/04 10:06:33;;;;;;;156.50;139.32;;;;;;;16.98;38.09;92130.94;5025973;28;20146;-65
2022/01/04 10:09:04;;;;;;;159.38;142.00;;;;;;;16.99;37.78;92133.13;5024972;28;20049;-65
2022/01/04 10:11:43;;;;;;;160.65;143.07;;;;;;;17.01;37.71;92127.25;5021234;28;20047;-65
2022/01/04 10:14:24;;;;;;;162.57;144.88;;;;;;;17.02;37.78;92115.22;5019938;28;20053;-65
2022/01/04 10:16:54;;;;;;;163.10;145.23;;;;;;;17.02;38.03;92099.00;5016749;28;20053;-65
2022/01/04 10:19:56;;;;;;;158.55;141.30;;;;;;;17.01;37.91;92119.16;5019628;28;20145;-65
2022/01/04 10:22:27;;;;;;;158.32;141.00;;;;;;;17.01;37.85;92108.34;5020357;28;20140;-65
2022/01/04 10:25:02;;;;;;;160.50;143.05;;;;;;;17.01;37.93;92109.09;5020304;28;20426;-66
2022/01/04 10:27:41;;;;;;;158.70;141.52;;;;;;;17.01;37.86;92097.53;5005764;28;20136;-66
2022/01/04 10:30:28;;;;;;;163.93;146.00;;;;;;;17.01;37.91;92100.25;5015189;28;20061;-65
2022/01/04 10:33:21;;;;;;;158.15;141.02;;;;;;;17.02;38.15;92093.63;5017888;28;20636;-66
2022/01/04 10:35:52;;;;;;;156.68;139.55;;;;;;;17.02;37.92;92080.13;5016795;28;20069;-66
2022/01/04 10:38:29;;;;;;;164.82;146.60;;;;;;;17.01;37.97;92082.06;5016115;28;20048;-66
2022/01/04 10:41:10;;;;;;;160.48;143.07;;;;;;;17.02;37.99;92066.63;5021037;28;20061;-66
2022/01/04 10:43:39;;;;;;;158.88;141.65;;;;;;;17.03;38.01;92059.97;5040668;28;20046;-66
2022/01/04 10:46:05;;;;;;;160.40;143.00;;;;;;;17.03;38.01;92059.97;5022987;28;20252;-66
2022/01/04 10:48:34;;;;;;;161.23;143.63;;;;;;;17.02;37.95;92058.50;5025280;28;20049;-65
2022/01/04 10:51:07;;;;;;;160.43;142.93;;;;;;;17.04;38.16;92056.06;5022757;28;20505;-65
2022/01/04 10:53:38;;;;;;;160.43;142.98;;;;;;;17.04;38.12;92050.66;5018922;28;20432;-66
2022/01/04 10:56:07;;;;;;;161.13;143.63;;;;;;;17.03;38.05;92047.22;5022928;28;20081;-66
2022/01/04 10:58:40;;;;;;;160.90;143.48;;;;;;;17.03;37.96;92039.13;5027192;28;20058;-66
2022/01/04 11:01:10;;;;;;;160.55;143.27;;;;;;;17.02;38.06;92026.84;5024069;28;20063;-66
2022/01/04 11:03:39;;;;;;;160.00;142.60;;;;;;;17.03;38.10;92036.41;5018023;28;20054;-66
2022/01/04 11:06:11;;;;;;;160.20;143.00;;;;;;;17.04;38.03;92031.75;5028902;28;20059;-67
2022/01/04 11:08:38;;;;;;;160.85;143.60;;;;;;;17.01;37.79;92032.75;5023515;28;20038;-66
2022/01/04 11:11:04;;;;;;;165.18;147.80;;;;;;;17.03;38.06;92033.72;5024364;28;20529;-66